Linda — OJML — position and weather

sailwx.info

Track history (hours):
 
Tides and Currents Weather Stations Pressure Air Temp Water Temp Dewpoint Dewpoint Depression Visibility Wind Speed Wind Dir Waves Ship Positions

Linda

Last reported at 2018-Apr-27 07:54 UTC. Time now 2018-Apr-27 08:37 UTC.
Position N 60°13' E 025°12'.

Length 141 m; draft 7 m.

Type: Ship (hazmat cat A). MMSI: 230984000.

Date/timePositionNaut miles runAvg speedWind from/ knotsBaromVisibWave heightAir tempDewpointWater temp
2018-Apr-27 07:54N 60°13' E 025°12'1 2.5
2018-Apr-27 07:30N 60°12' E 025°13'713.0
2018-Apr-27 07:00N 60°06' E 025°11'611.5
2018-Apr-27 06:30N 60°00' E 025°13'815.1
2018-Apr-27 05:59N 59°57' E 025°28'714.8
2018-Apr-27 05:30N 59°55' E 025°42'1315.2
2018-Apr-27 04:40N 59°57' E 026°07'315.0
2018-Apr-27 04:29N 59°58' E 026°12'715.0
2018-Apr-27 03:59N 60°00' E 026°26'715.2
2018-Apr-27 03:31N 60°01' E 026°40'815.1
2018-Apr-27 03:01N 59°60' E 026°55'714.0
2018-Apr-27 02:30N 60°01' E 027°09'815.0
2018-Apr-27 02:01N 60°05' E 027°22'815.2
2018-Apr-27 01:31N 60°09' E 027°35'714.4
2018-Apr-27 01:00N 60°12' E 027°49'815.4
2018-Apr-27 00:30N 60°10' E 028°04'815.2
2018-Apr-27 00:00N 60°07' E 028°18'815.2
2018-Apr-26 23:31N 60°03' E 028°31'815.1
2018-Apr-26 23:00N 60°03' E 028°46'715.0
2018-Apr-26 22:31N 60°03' E 029°01'1713.3
2018-Apr-26 21:13N 60°01' E 029°35'312.9
2018-Apr-26 20:57N 59°59' E 029°42'3 1.0
2018-Apr-26 17:42N 59°56' E 029°41'0 0.0
2018-Apr-26 17:27N 59°56' E 029°41'0 0.0
2018-Apr-26 16:51N 59°56' E 029°41'0 0.0
2018-Apr-26 15:46N 59°56' E 029°41'0 0.0
2018-Apr-26 15:21N 59°56' E 029°41'0 0.0
2018-Apr-26 14:56N 59°56' E 029°41'0 0.0
2018-Apr-26 14:30N 59°56' E 029°41'3 4.4
2018-Apr-26 13:53N 59°58' E 029°45'2 0.2
2018-Apr-26 05:23N 60°00' E 029°43'1 2.4
2018-Apr-26 04:57N 59°59' E 029°43'3 6.7
2018-Apr-26 04:28N 60°00' E 029°37'511.0
2018-Apr-26 03:59N 60°01' E 029°27'612.0
2018-Apr-26 03:30N 60°02' E 029°15'712.7
2018-Apr-26 02:59N 60°02' E 029°02'612.9
2018-Apr-26 02:30N 60°02' E 028°49'612.9
2018-Apr-26 02:00N 60°02' E 028°36'612.6
2018-Apr-26 01:30N 60°04' E 028°24'612.6
2018-Apr-26 01:00N 60°07' E 028°14'612.9
2018-Apr-26 00:30N 60°09' E 028°02'612.5
2018-Apr-26 00:00N 60°11' E 027°49'611.8
2018-Apr-25 23:30N 60°08' E 027°38'612.7
2018-Apr-25 23:00N 60°05' E 027°28'612.6
2018-Apr-25 22:30N 60°02' E 027°17'612.7
2018-Apr-25 22:00N 59°58' E 027°06'612.1
2018-Apr-25 21:30N 59°58' E 026°54'612.7
2018-Apr-25 21:00N 59°59' E 026°41'612.7
2018-Apr-25 20:30N 59°58' E 026°29'612.9
2018-Apr-25 20:00N 59°56' E 026°16'2212.3
2018-Apr-25 18:14N 59°54' E 025°33'312.8
2018-Apr-25 18:00N 59°55' E 025°28'612.8
2018-Apr-25 17:30N 59°59' E 025°17'612.2
2018-Apr-25 17:00N 60°03' E 025°08'713.0
2018-Apr-25 16:30N 60°09' E 025°12'4 0.3
2018-Apr-25 03:49N 60°13' E 025°12'1 1.6
2018-Apr-25 03:30N 60°13' E 025°12'713.0
2018-Apr-25 03:00N 60°06' E 025°11'815.1
2018-Apr-25 02:30N 59°59' E 025°05'612.9
2018-Apr-25 02:01N 59°53' E 025°01'612.0
2018-Apr-25 01:30N 59°48' E 024°54'612.9
2018-Apr-25 01:01N 59°46' E 024°42'713.3
2018-Apr-25 00:31N 59°44' E 024°30'713.3
2018-Apr-25 00:01N 59°42' E 024°17'1513.5
2018-Apr-24 22:53N 59°38' E 023°48'613.8
2018-Apr-24 22:26N 59°36' E 023°37'613.6
2018-Apr-24 22:00N 59°34' E 023°26'31015.5
2018-Apr-24 01:58N 55°58' E 016°30'816.7
2018-Apr-24 01:31N 55°54' E 016°18'816.7
2018-Apr-24 01:00N 55°50' E 016°05'816.6
2018-Apr-24 00:31N 55°46' E 015°52'816.8
2018-Apr-24 00:01N 55°42' E 015°39'816.6
2018-Apr-23 23:30N 55°38' E 015°26'816.5
2018-Apr-23 23:01N 55°34' E 015°13'916.5
2018-Apr-23 22:27N 55°29' E 014°59'716.2
2018-Apr-23 22:00N 55°25' E 014°49'816.3
2018-Apr-23 21:30N 55°21' E 014°36'816.3
2018-Apr-23 21:00N 55°15' E 014°27'816.3
2018-Apr-23 20:31N 55°09' E 014°18'816.5
2018-Apr-23 20:01N 55°02' E 014°09'1016.1
2018-Apr-23 19:24N 54°58' E 013°53'1116.9
2018-Apr-23 18:44N 54°54' E 013°35'416.7
2018-Apr-23 18:29N 54°53' E 013°28'3016.2
2018-Apr-23 16:36N 54°40' E 012°40'216.0
2018-Apr-23 16:30N 54°39' E 012°38'816.0
2018-Apr-23 16:01N 54°35' E 012°27'815.7
2018-Apr-23 15:30N 54°29' E 012°16'1914.6
2018-Apr-23 14:11N 54°26' E 011°44'316.4
2018-Apr-23 14:00N 54°27' E 011°39'1316.4
2018-Apr-23 13:15N 54°32' E 011°20'416.1
2018-Apr-23 13:01N 54°34' E 011°14'815.5
2018-Apr-23 12:31N 54°35' E 011°00'816.0
2018-Apr-23 12:00N 54°34' E 010°47'816.0
2018-Apr-23 11:31N 54°33' E 010°33'815.4
2018-Apr-23 11:00N 54°30' E 010°21'19 6.3
2018-Apr-23 07:57N 54°22' E 009°51'3 7.9
2018-Apr-23 07:30N 54°21' E 009°45'4 7.6
2018-Apr-23 07:00N 54°18' E 009°41'3 5.5
2018-Apr-23 06:30N 54°16' E 009°38'2 3.3
2018-Apr-23 06:00N 54°14' E 009°37'3 6.4
2018-Apr-23 05:30N 54°12' E 009°33'1 1.6
2018-Apr-23 05:00N 54°12' E 009°32'4 7.3
2018-Apr-23 04:30N 54°10' E 009°26'3 5.9
2018-Apr-23 04:00N 54°09' E 009°22'4 7.7
2018-Apr-23 03:30N 54°05' E 009°19'3 6.5
2018-Apr-23 03:00N 54°02' E 009°18'3 6.2
2018-Apr-23 02:30N 53°59' E 009°17'4 8.0
2018-Apr-23 02:00N 53°56' E 009°13'3 6.5
2018-Apr-23 01:30N 53°54' E 009°09'0 0.1
2018-Apr-23 01:00N 53°54' E 009°09'0 0.5
2018-Apr-23 00:30N 53°53' E 009°08'1 2.4
2018-Apr-23 00:00N 53°53' E 009°07'0 0.9
2018-Apr-22 23:28N 53°53' E 009°06'0 0.1
2018-Apr-22 22:55N 53°53' E 009°06'0 0.0
2018-Apr-22 22:28N 53°53' E 009°06'0 0.0
2018-Apr-22 21:58N 53°53' E 009°06'0 0.0
2018-Apr-22 21:28N 53°53' E 009°06'0 0.0
2018-Apr-22 20:58N 53°53' E 009°06'0 0.0
2018-Apr-22 20:28N 53°53' E 009°06'0 0.1
2018-Apr-22 19:58N 53°53' E 009°06'0 0.0
2018-Apr-22 19:28N 53°53' E 009°06'0 0.2
2018-Apr-22 18:58N 53°53' E 009°06'0 0.2
2018-Apr-22 18:28N 53°53' E 009°06'0 0.1
2018-Apr-22 17:58N 53°53' E 009°06'0 0.0
2018-Apr-22 17:28N 53°53' E 009°06'0 0.0
2018-Apr-22 16:46N 53°53' E 009°06'0 0.1
2018-Apr-22 16:28N 53°53' E 009°06'0 0.1
2018-Apr-22 15:58N 53°53' E 009°06'1 1.1
2018-Apr-22 15:30N 53°53' E 009°06'611.1
2018-Apr-22 15:00N 53°51' E 008°57'713.9
2018-Apr-22 14:30N 53°51' E 008°45'816.0
2018-Apr-22 14:01N 53°57' E 008°37'1018.4
2018-Apr-22 13:28N 53°59' E 008°20'914.9
2018-Apr-22 12:51N 53°59' E 008°04'6716.3
2018-Apr-22 08:42N 53°43' E 006°13'315.4
2018-Apr-22 08:30N 53°42' E 006°08'715.2
2018-Apr-22 08:01N 53°40' E 005°56'815.1
2018-Apr-22 07:30N 53°38' E 005°44'714.8
2018-Apr-22 07:00N 53°36' E 005°32'814.8
2018-Apr-22 06:29N 53°33' E 005°20'714.7
2018-Apr-22 06:00N 53°31' E 005°09'714.6
2018-Apr-22 05:30N 53°28' E 004°57'714.7
2018-Apr-22 05:00N 53°25' E 004°46'714.3
2018-Apr-22 04:30N 53°19' E 004°39'815.0
2018-Apr-22 04:00N 53°12' E 004°33'715.0
2018-Apr-22 03:31N 53°06' E 004°28'815.1
2018-Apr-22 03:01N 52°59' E 004°22'815.1
2018-Apr-22 02:30N 52°53' E 004°16'714.9
2018-Apr-22 02:00N 52°46' E 004°09'714.8
2018-Apr-22 01:31N 52°40' E 004°02'814.8
2018-Apr-22 01:00N 52°33' E 003°56'714.6
2018-Apr-22 00:31N 52°27' E 003°53'714.9
2018-Apr-22 00:00N 52°19' E 003°52'815.2
2018-Apr-21 23:31N 52°12' E 003°54'815.1
2018-Apr-21 23:01N 52°04' E 003°54'612.3
2018-Apr-21 22:30N 52°00' E 004°01'816.3
2018-Apr-21 22:01N 51°56' E 004°13'611.8
2018-Apr-21 21:31N 51°54' E 004°22'2 4.7
2018-Apr-21 21:00N 51°53' E 004°25'0 0.0
2018-Apr-21 20:29N 51°53' E 004°25'0 0.0
2018-Apr-21 19:59N 51°53' E 004°25'0 0.0
2018-Apr-21 19:29N 51°53' E 004°25'0 0.0
2018-Apr-21 18:59N 51°53' E 004°25'0 0.0
2018-Apr-21 18:29N 51°53' E 004°25'0 0.0
2018-Apr-21 17:59N 51°53' E 004°25'0 0.0
2018-Apr-21 17:29N 51°53' E 004°25'0 0.0
2018-Apr-21 16:59N 51°53' E 004°25'0 0.0
2018-Apr-21 16:29N 51°53' E 004°25'0 0.0
2018-Apr-21 15:59N 51°53' E 004°25'0 0.0
2018-Apr-21 15:29N 51°53' E 004°25'0 0.0
2018-Apr-21 14:59N 51°53' E 004°25'0 0.0
2018-Apr-21 14:29N 51°53' E 004°25'0 0.0
2018-Apr-21 13:56N 51°53' E 004°25'0 0.0
2018-Apr-21 13:29N 51°53' E 004°25'0 0.0
2018-Apr-21 12:59N 51°53' E 004°25'0 0.0
2018-Apr-21 12:26N 51°53' E 004°25'0 0.0
2018-Apr-21 11:59N 51°53' E 004°25'0 0.0
2018-Apr-21 11:29N 51°53' E 004°25'0 0.0
2018-Apr-21 10:59N 51°53' E 004°25'0 0.0
2018-Apr-21 10:29N 51°53' E 004°25'0 0.0
2018-Apr-21 09:59N 51°53' E 004°25'0 0.0
2018-Apr-21 09:29N 51°53' E 004°25'0 0.0
2018-Apr-21 08:59N 51°53' E 004°25'0 0.0
2018-Apr-21 08:29N 51°53' E 004°25'0 0.0
2018-Apr-21 07:59N 51°53' E 004°25'0 0.0
2018-Apr-21 07:29N 51°53' E 004°25'0 0.0
2018-Apr-21 06:59N 51°53' E 004°25'0 0.0
2018-Apr-21 06:29N 51°53' E 004°25'0 0.0
2018-Apr-21 05:59N 51°53' E 004°25'0 0.0
2018-Apr-21 05:30N 51°53' E 004°25'2 3.3
2018-Apr-21 05:00N 51°54' E 004°23'5 9.6
2018-Apr-21 04:30N 51°55' E 004°15'612.8
2018-Apr-21 04:00N 51°59' E 004°07'816.1
2018-Apr-21 03:31N 51°60' E 003°54'611.5
2018-Apr-21 03:00N 51°60' E 003°45'714.2
2018-Apr-21 02:30N 51°57' E 003°34'816.0
2018-Apr-21 02:00N 51°53' E 003°23'816.1
2018-Apr-21 01:30N 51°46' E 003°16'815.7
2018-Apr-21 00:58N 51°38' E 003°12'715.3
2018-Apr-21 00:30N 51°32' E 003°07'815.3
2018-Apr-21 00:00N 51°27' E 002°58'815.0
2018-Apr-20 23:29N 51°24' E 002°46'2 5.1
2018-Apr-20 23:00N 51°22' E 002°48'918.1
2018-Apr-20 22:30N 51°25' E 003°03'713.4
2018-Apr-20 22:00N 51°21' E 003°11'0 0.1
2018-Apr-20 21:19N 51°21' E 003°11'0 0.0
2018-Apr-20 20:58N 51°21' E 003°11'0 0.0
2018-Apr-20 20:28N 51°21' E 003°11'0 0.0
2018-Apr-20 19:58N 51°21' E 003°11'0 0.0
2018-Apr-20 19:28N 51°21' E 003°11'0 0.0
2018-Apr-20 18:58N 51°21' E 003°11'0 0.0
2018-Apr-20 18:28N 51°21' E 003°11'0 0.0
2018-Apr-20 17:58N 51°21' E 003°11'0 0.0
2018-Apr-20 17:28N 51°21' E 003°11'0 0.0
2018-Apr-20 16:58N 51°21' E 003°11'0 0.0
2018-Apr-20 16:28N 51°21' E 003°11'0 0.0
2018-Apr-20 15:49N 51°21' E 003°11'0 0.0
2018-Apr-20 15:25N 51°21' E 003°11'0 0.0
2018-Apr-20 14:46N 51°21' E 003°11'0 0.0
2018-Apr-20 14:30N 51°21' E 003°11'3 5.1
2018-Apr-20 14:00N 51°23' E 003°09'816.8
2018-Apr-20 13:30N 51°23' E 002°56'816.0
2018-Apr-20 12:59N 51°21' E 002°43'611.8
2018-Apr-20 12:29N 51°22' E 002°33'510.4
2018-Apr-20 12:01N 51°27' E 002°32'918.5
2018-Apr-20 11:31N 51°35' E 002°38'917.8
2018-Apr-20 11:00N 51°44' E 002°37'917.6
2018-Apr-20 10:30N 51°51' E 002°28'1018.3
2018-Apr-20 09:59N 52°00' E 002°26'1118.0
2018-Apr-20 09:21N 52°11' E 002°22'917.4
2018-Apr-20 08:51N 52°20' E 002°20'1016.9
2018-Apr-20 08:16N 52°30' E 002°17'716.7
2018-Apr-20 07:52N 52°36' E 002°15'915.9
2018-Apr-20 07:18N 52°45' E 002°12'516.2
2018-Apr-20 07:00N 52°49' E 002°07'816.1
2018-Apr-20 06:30N 52°54' E 001°57'815.7
2018-Apr-20 06:01N 52°59' E 001°47'815.5
2018-Apr-20 05:30N 53°04' E 001°37'815.1
2018-Apr-20 05:00N 53°09' E 001°28'714.9
2018-Apr-20 04:30N 53°14' E 001°19'1015.1
2018-Apr-20 03:50N 53°22' E 001°08'515.1
2018-Apr-20 03:30N 53°26' E 001°04'814.8
2018-Apr-20 02:59N 53°33' E 000°56'3615.5
2018-Apr-20 00:41N 54°00' E 000°18'315.8
2018-Apr-20 00:30N 54°02' E 000°15'815.8
2018-Apr-20 00:00N 54°08' E 000°05'815.5
2018-Apr-19 23:30N 54°14' W 000°03'816.1
2018-Apr-19 23:00N 54°20' W 000°13'816.4
2018-Apr-19 22:30N 54°26' W 000°22'30 2.8
2018-Apr-19 11:50N 54°42' W 001°04'310.9
2018-Apr-19 11:30N 54°44' W 000°59'510.9
2018-Apr-19 11:01N 54°46' W 000°51'7312.2
2018-Apr-19 05:01N 55°18' E 001°05'013.9
2018-Apr-19 05:00N 55°18' E 001°05'1014.0
2018-Apr-19 04:17N 55°22' E 001°21'25513.6
2018-Apr-18 09:27N 57°13' E 008°16'8013.5
2018-Apr-18 03:32N 57°47' E 010°30'015.6
2018-Apr-18 03:30N 57°47' E 010°31'815.5
2018-Apr-18 03:00N 57°47' E 010°45'816.1
2018-Apr-18 02:30N 57°43' E 010°58'816.9
2018-Apr-18 02:00N 57°37' E 011°08'917.2
2018-Apr-18 01:30N 57°31' E 011°21'816.9
2018-Apr-18 01:00N 57°24' E 011°29'917.6
2018-Apr-18 00:30N 57°16' E 011°35'917.4
2018-Apr-18 00:00N 57°07' E 011°40'1417.2
2018-Apr-17 23:11N 56°54' E 011°49'416.5
2018-Apr-17 22:58N 56°51' E 011°51'2115.8
2018-Apr-17 21:39N 56°31' E 011°39'616.2
2018-Apr-17 21:18N 56°26' E 011°34'1016.2
2018-Apr-17 20:42N 56°18' E 011°25'616.7
2018-Apr-17 20:21N 56°13' E 011°19'916.4
2018-Apr-17 19:49N 56°06' E 011°09'4513.8
2018-Apr-17 16:33N 55°21' E 011°02'616.0
2018-Apr-17 16:12N 55°16' E 011°05'315.9
2018-Apr-17 16:00N 55°13' E 011°06'815.5
2018-Apr-17 15:30N 55°05' E 011°03'815.2
2018-Apr-17 15:00N 54°58' E 010°59'714.1
2018-Apr-17 14:30N 54°52' E 010°53'815.0
2018-Apr-17 14:00N 54°44' E 010°53'714.4
2018-Apr-17 13:30N 54°39' E 011°01'816.2
2018-Apr-17 13:00N 54°36' E 011°14'816.2
2018-Apr-17 12:30N 54°32' E 011°26'815.9
2018-Apr-17 12:00N 54°28' E 011°39'815.7
2018-Apr-17 11:30N 54°26' E 011°52'815.8
2018-Apr-17 11:00N 54°26' E 012°05'  
Track history (hours):
 
Tides and Currents Weather Stations Pressure Air Temp Water Temp Dewpoint Dewpoint Depression Visibility Wind Speed Wind Dir Waves Ship Positions

Linda

Last reported at 2018-Apr-27 07:54 UTC. Time now 2018-Apr-27 08:37 UTC.
Position N 60°13' E 025°12'.

Length 141 m; draft 7 m.

Type: Ship (hazmat cat A). MMSI: 230984000.

Date/timePositionNaut miles runAvg speedWind from/ knotsBaromVisibWave heightAir tempDewpointWater temp
2018-Apr-27 07:54N 60°13' E 025°12'1 2.5
2018-Apr-27 07:30N 60°12' E 025°13'713.0
2018-Apr-27 07:00N 60°06' E 025°11'611.5
2018-Apr-27 06:30N 60°00' E 025°13'815.1
2018-Apr-27 05:59N 59°57' E 025°28'714.8
2018-Apr-27 05:30N 59°55' E 025°42'1315.2
2018-Apr-27 04:40N 59°57' E 026°07'315.0
2018-Apr-27 04:29N 59°58' E 026°12'715.0
2018-Apr-27 03:59N 60°00' E 026°26'715.2
2018-Apr-27 03:31N 60°01' E 026°40'815.1
2018-Apr-27 03:01N 59°60' E 026°55'714.0
2018-Apr-27 02:30N 60°01' E 027°09'815.0
2018-Apr-27 02:01N 60°05' E 027°22'815.2
2018-Apr-27 01:31N 60°09' E 027°35'714.4
2018-Apr-27 01:00N 60°12' E 027°49'815.4
2018-Apr-27 00:30N 60°10' E 028°04'815.2
2018-Apr-27 00:00N 60°07' E 028°18'815.2
2018-Apr-26 23:31N 60°03' E 028°31'815.1
2018-Apr-26 23:00N 60°03' E 028°46'715.0
2018-Apr-26 22:31N 60°03' E 029°01'1713.3
2018-Apr-26 21:13N 60°01' E 029°35'312.9
2018-Apr-26 20:57N 59°59' E 029°42'3 1.0
2018-Apr-26 17:42N 59°56' E 029°41'0 0.0
2018-Apr-26 17:27N 59°56' E 029°41'0 0.0
2018-Apr-26 16:51N 59°56' E 029°41'0 0.0
2018-Apr-26 15:46N 59°56' E 029°41'0 0.0
2018-Apr-26 15:21N 59°56' E 029°41'0 0.0
2018-Apr-26 14:56N 59°56' E 029°41'0 0.0
2018-Apr-26 14:30N 59°56' E 029°41'3 4.4
2018-Apr-26 13:53N 59°58' E 029°45'2 0.2
2018-Apr-26 05:23N 60°00' E 029°43'1 2.4
2018-Apr-26 04:57N 59°59' E 029°43'3 6.7
2018-Apr-26 04:28N 60°00' E 029°37'511.0
2018-Apr-26 03:59N 60°01' E 029°27'612.0
2018-Apr-26 03:30N 60°02' E 029°15'712.7
2018-Apr-26 02:59N 60°02' E 029°02'612.9
2018-Apr-26 02:30N 60°02' E 028°49'612.9
2018-Apr-26 02:00N 60°02' E 028°36'612.6
2018-Apr-26 01:30N 60°04' E 028°24'612.6
2018-Apr-26 01:00N 60°07' E 028°14'612.9
2018-Apr-26 00:30N 60°09' E 028°02'612.5
2018-Apr-26 00:00N 60°11' E 027°49'611.8
2018-Apr-25 23:30N 60°08' E 027°38'612.7
2018-Apr-25 23:00N 60°05' E 027°28'612.6
2018-Apr-25 22:30N 60°02' E 027°17'612.7
2018-Apr-25 22:00N 59°58' E 027°06'612.1
2018-Apr-25 21:30N 59°58' E 026°54'612.7
2018-Apr-25 21:00N 59°59' E 026°41'612.7
2018-Apr-25 20:30N 59°58' E 026°29'612.9
2018-Apr-25 20:00N 59°56' E 026°16'2212.3
2018-Apr-25 18:14N 59°54' E 025°33'312.8
2018-Apr-25 18:00N 59°55' E 025°28'612.8
2018-Apr-25 17:30N 59°59' E 025°17'612.2
2018-Apr-25 17:00N 60°03' E 025°08'713.0
2018-Apr-25 16:30N 60°09' E 025°12'4 0.3
2018-Apr-25 03:49N 60°13' E 025°12'1 1.6
2018-Apr-25 03:30N 60°13' E 025°12'713.0
2018-Apr-25 03:00N 60°06' E 025°11'815.1
2018-Apr-25 02:30N 59°59' E 025°05'612.9
2018-Apr-25 02:01N 59°53' E 025°01'612.0
2018-Apr-25 01:30N 59°48' E 024°54'612.9
2018-Apr-25 01:01N 59°46' E 024°42'713.3
2018-Apr-25 00:31N 59°44' E 024°30'713.3
2018-Apr-25 00:01N 59°42' E 024°17'1513.5
2018-Apr-24 22:53N 59°38' E 023°48'613.8
2018-Apr-24 22:26N 59°36' E 023°37'613.6
2018-Apr-24 22:00N 59°34' E 023°26'31015.5
2018-Apr-24 01:58N 55°58' E 016°30'816.7
2018-Apr-24 01:31N 55°54' E 016°18'816.7
2018-Apr-24 01:00N 55°50' E 016°05'816.6
2018-Apr-24 00:31N 55°46' E 015°52'816.8
2018-Apr-24 00:01N 55°42' E 015°39'816.6
2018-Apr-23 23:30N 55°38' E 015°26'816.5
2018-Apr-23 23:01N 55°34' E 015°13'916.5
2018-Apr-23 22:27N 55°29' E 014°59'716.2
2018-Apr-23 22:00N 55°25' E 014°49'816.3
2018-Apr-23 21:30N 55°21' E 014°36'816.3
2018-Apr-23 21:00N 55°15' E 014°27'816.3
2018-Apr-23 20:31N 55°09' E 014°18'816.5
2018-Apr-23 20:01N 55°02' E 014°09'1016.1
2018-Apr-23 19:24N 54°58' E 013°53'1116.9
2018-Apr-23 18:44N 54°54' E 013°35'416.7
2018-Apr-23 18:29N 54°53' E 013°28'3016.2
2018-Apr-23 16:36N 54°40' E 012°40'216.0
2018-Apr-23 16:30N 54°39' E 012°38'816.0
2018-Apr-23 16:01N 54°35' E 012°27'815.7
2018-Apr-23 15:30N 54°29' E 012°16'1914.6
2018-Apr-23 14:11N 54°26' E 011°44'316.4
2018-Apr-23 14:00N 54°27' E 011°39'1316.4
2018-Apr-23 13:15N 54°32' E 011°20'416.1
2018-Apr-23 13:01N 54°34' E 011°14'815.5
2018-Apr-23 12:31N 54°35' E 011°00'816.0
2018-Apr-23 12:00N 54°34' E 010°47'816.0
2018-Apr-23 11:31N 54°33' E 010°33'815.4
2018-Apr-23 11:00N 54°30' E 010°21'19 6.3
2018-Apr-23 07:57N 54°22' E 009°51'3 7.9
2018-Apr-23 07:30N 54°21' E 009°45'4 7.6
2018-Apr-23 07:00N 54°18' E 009°41'3 5.5
2018-Apr-23 06:30N 54°16' E 009°38'2 3.3
2018-Apr-23 06:00N 54°14' E 009°37'3 6.4
2018-Apr-23 05:30N 54°12' E 009°33'1 1.6
2018-Apr-23 05:00N 54°12' E 009°32'4 7.3
2018-Apr-23 04:30N 54°10' E 009°26'3 5.9
2018-Apr-23 04:00N 54°09' E 009°22'4 7.7
2018-Apr-23 03:30N 54°05' E 009°19'3 6.5
2018-Apr-23 03:00N 54°02' E 009°18'3 6.2
2018-Apr-23 02:30N 53°59' E 009°17'4 8.0
2018-Apr-23 02:00N 53°56' E 009°13'3 6.5
2018-Apr-23 01:30N 53°54' E 009°09'0 0.1
2018-Apr-23 01:00N 53°54' E 009°09'0 0.5
2018-Apr-23 00:30N 53°53' E 009°08'1 2.4
2018-Apr-23 00:00N 53°53' E 009°07'0 0.9
2018-Apr-22 23:28N 53°53' E 009°06'0 0.1
2018-Apr-22 22:55N 53°53' E 009°06'0 0.0
2018-Apr-22 22:28N 53°53' E 009°06'0 0.0
2018-Apr-22 21:58N 53°53' E 009°06'0 0.0
2018-Apr-22 21:28N 53°53' E 009°06'0 0.0
2018-Apr-22 20:58N 53°53' E 009°06'0 0.0
2018-Apr-22 20:28N 53°53' E 009°06'0 0.1
2018-Apr-22 19:58N 53°53' E 009°06'0 0.0
2018-Apr-22 19:28N 53°53' E 009°06'0 0.2
2018-Apr-22 18:58N 53°53' E 009°06'0 0.2
2018-Apr-22 18:28N 53°53' E 009°06'0 0.1
2018-Apr-22 17:58N 53°53' E 009°06'0 0.0
2018-Apr-22 17:28N 53°53' E 009°06'0 0.0
2018-Apr-22 16:46N 53°53' E 009°06'0 0.1
2018-Apr-22 16:28N 53°53' E 009°06'0 0.1
2018-Apr-22 15:58N 53°53' E 009°06'1 1.1
2018-Apr-22 15:30N 53°53' E 009°06'611.1
2018-Apr-22 15:00N 53°51' E 008°57'713.9
2018-Apr-22 14:30N 53°51' E 008°45'816.0
2018-Apr-22 14:01N 53°57' E 008°37'1018.4
2018-Apr-22 13:28N 53°59' E 008°20'914.9
2018-Apr-22 12:51N 53°59' E 008°04'6716.3
2018-Apr-22 08:42N 53°43' E 006°13'315.4
2018-Apr-22 08:30N 53°42' E 006°08'715.2
2018-Apr-22 08:01N 53°40' E 005°56'815.1
2018-Apr-22 07:30N 53°38' E 005°44'714.8
2018-Apr-22 07:00N 53°36' E 005°32'814.8
2018-Apr-22 06:29N 53°33' E 005°20'714.7
2018-Apr-22 06:00N 53°31' E 005°09'714.6
2018-Apr-22 05:30N 53°28' E 004°57'714.7
2018-Apr-22 05:00N 53°25' E 004°46'714.3
2018-Apr-22 04:30N 53°19' E 004°39'815.0
2018-Apr-22 04:00N 53°12' E 004°33'715.0
2018-Apr-22 03:31N 53°06' E 004°28'815.1
2018-Apr-22 03:01N 52°59' E 004°22'815.1
2018-Apr-22 02:30N 52°53' E 004°16'714.9
2018-Apr-22 02:00N 52°46' E 004°09'714.8
2018-Apr-22 01:31N 52°40' E 004°02'814.8
2018-Apr-22 01:00N 52°33' E 003°56'714.6
2018-Apr-22 00:31N 52°27' E 003°53'714.9
2018-Apr-22 00:00N 52°19' E 003°52'815.2
2018-Apr-21 23:31N 52°12' E 003°54'815.1
2018-Apr-21 23:01N 52°04' E 003°54'612.3
2018-Apr-21 22:30N 52°00' E 004°01'816.3
2018-Apr-21 22:01N 51°56' E 004°13'611.8
2018-Apr-21 21:31N 51°54' E 004°22'2 4.7
2018-Apr-21 21:00N 51°53' E 004°25'0 0.0
2018-Apr-21 20:29N 51°53' E 004°25'0 0.0
2018-Apr-21 19:59N 51°53' E 004°25'0 0.0
2018-Apr-21 19:29N 51°53' E 004°25'0 0.0
2018-Apr-21 18:59N 51°53' E 004°25'0 0.0
2018-Apr-21 18:29N 51°53' E 004°25'0 0.0
2018-Apr-21 17:59N 51°53' E 004°25'0 0.0
2018-Apr-21 17:29N 51°53' E 004°25'0 0.0
2018-Apr-21 16:59N 51°53' E 004°25'0 0.0
2018-Apr-21 16:29N 51°53' E 004°25'0 0.0
2018-Apr-21 15:59N 51°53' E 004°25'0 0.0
2018-Apr-21 15:29N 51°53' E 004°25'0 0.0
2018-Apr-21 14:59N 51°53' E 004°25'0 0.0
2018-Apr-21 14:29N 51°53' E 004°25'0 0.0
2018-Apr-21 13:56N 51°53' E 004°25'0 0.0
2018-Apr-21 13:29N 51°53' E 004°25'0 0.0
2018-Apr-21 12:59N 51°53' E 004°25'0 0.0
2018-Apr-21 12:26N 51°53' E 004°25'0 0.0
2018-Apr-21 11:59N 51°53' E 004°25'0 0.0
2018-Apr-21 11:29N 51°53' E 004°25'0 0.0
2018-Apr-21 10:59N 51°53' E 004°25'0 0.0
2018-Apr-21 10:29N 51°53' E 004°25'0 0.0
2018-Apr-21 09:59N 51°53' E 004°25'0 0.0
2018-Apr-21 09:29N 51°53' E 004°25'0 0.0
2018-Apr-21 08:59N 51°53' E 004°25'0 0.0
2018-Apr-21 08:29N 51°53' E 004°25'0 0.0
2018-Apr-21 07:59N 51°53' E 004°25'0 0.0
2018-Apr-21 07:29N 51°53' E 004°25'0 0.0
2018-Apr-21 06:59N 51°53' E 004°25'0 0.0
2018-Apr-21 06:29N 51°53' E 004°25'0 0.0
2018-Apr-21 05:59N 51°53' E 004°25'0 0.0
2018-Apr-21 05:30N 51°53' E 004°25'2 3.3
2018-Apr-21 05:00N 51°54' E 004°23'5 9.6
2018-Apr-21 04:30N 51°55' E 004°15'612.8
2018-Apr-21 04:00N 51°59' E 004°07'816.1
2018-Apr-21 03:31N 51°60' E 003°54'611.5
2018-Apr-21 03:00N 51°60' E 003°45'714.2
2018-Apr-21 02:30N 51°57' E 003°34'816.0
2018-Apr-21 02:00N 51°53' E 003°23'816.1
2018-Apr-21 01:30N 51°46' E 003°16'815.7
2018-Apr-21 00:58N 51°38' E 003°12'715.3
2018-Apr-21 00:30N 51°32' E 003°07'815.3
2018-Apr-21 00:00N 51°27' E 002°58'815.0
2018-Apr-20 23:29N 51°24' E 002°46'2 5.1
2018-Apr-20 23:00N 51°22' E 002°48'918.1
2018-Apr-20 22:30N 51°25' E 003°03'713.4
2018-Apr-20 22:00N 51°21' E 003°11'0 0.1
2018-Apr-20 21:19N 51°21' E 003°11'0 0.0
2018-Apr-20 20:58N 51°21' E 003°11'0 0.0
2018-Apr-20 20:28N 51°21' E 003°11'0 0.0
2018-Apr-20 19:58N 51°21' E 003°11'0 0.0
2018-Apr-20 19:28N 51°21' E 003°11'0 0.0
2018-Apr-20 18:58N 51°21' E 003°11'0 0.0
2018-Apr-20 18:28N 51°21' E 003°11'0 0.0
2018-Apr-20 17:58N 51°21' E 003°11'0 0.0
2018-Apr-20 17:28N 51°21' E 003°11'0 0.0
2018-Apr-20 16:58N 51°21' E 003°11'0 0.0
2018-Apr-20 16:28N 51°21' E 003°11'0 0.0
2018-Apr-20 15:49N 51°21' E 003°11'0 0.0
2018-Apr-20 15:25N 51°21' E 003°11'0 0.0
2018-Apr-20 14:46N 51°21' E 003°11'0 0.0
2018-Apr-20 14:30N 51°21' E 003°11'3 5.1
2018-Apr-20 14:00N 51°23' E 003°09'816.8
2018-Apr-20 13:30N 51°23' E 002°56'816.0
2018-Apr-20 12:59N 51°21' E 002°43'611.8
2018-Apr-20 12:29N 51°22' E 002°33'510.4
2018-Apr-20 12:01N 51°27' E 002°32'918.5
2018-Apr-20 11:31N 51°35' E 002°38'917.8
2018-Apr-20 11:00N 51°44' E 002°37'917.6
2018-Apr-20 10:30N 51°51' E 002°28'1018.3
2018-Apr-20 09:59N 52°00' E 002°26'1118.0
2018-Apr-20 09:21N 52°11' E 002°22'917.4
2018-Apr-20 08:51N 52°20' E 002°20'1016.9
2018-Apr-20 08:16N 52°30' E 002°17'716.7
2018-Apr-20 07:52N 52°36' E 002°15'915.9
2018-Apr-20 07:18N 52°45' E 002°12'516.2
2018-Apr-20 07:00N 52°49' E 002°07'816.1
2018-Apr-20 06:30N 52°54' E 001°57'815.7
2018-Apr-20 06:01N 52°59' E 001°47'815.5
2018-Apr-20 05:30N 53°04' E 001°37'815.1
2018-Apr-20 05:00N 53°09' E 001°28'714.9
2018-Apr-20 04:30N 53°14' E 001°19'1015.1
2018-Apr-20 03:50N 53°22' E 001°08'515.1
2018-Apr-20 03:30N 53°26' E 001°04'814.8
2018-Apr-20 02:59N 53°33' E 000°56'3615.5
2018-Apr-20 00:41N 54°00' E 000°18'315.8
2018-Apr-20 00:30N 54°02' E 000°15'815.8
2018-Apr-20 00:00N 54°08' E 000°05'815.5
2018-Apr-19 23:30N 54°14' W 000°03'816.1
2018-Apr-19 23:00N 54°20' W 000°13'816.4
2018-Apr-19 22:30N 54°26' W 000°22'30 2.8
2018-Apr-19 11:50N 54°42' W 001°04'310.9
2018-Apr-19 11:30N 54°44' W 000°59'510.9
2018-Apr-19 11:01N 54°46' W 000°51'7312.2
2018-Apr-19 05:01N 55°18' E 001°05'013.9
2018-Apr-19 05:00N 55°18' E 001°05'1014.0
2018-Apr-19 04:17N 55°22' E 001°21'25513.6
2018-Apr-18 09:27N 57°13' E 008°16'8013.5
2018-Apr-18 03:32N 57°47' E 010°30'015.6
2018-Apr-18 03:30N 57°47' E 010°31'815.5
2018-Apr-18 03:00N 57°47' E 010°45'816.1
2018-Apr-18 02:30N 57°43' E 010°58'816.9
2018-Apr-18 02:00N 57°37' E 011°08'917.2
2018-Apr-18 01:30N 57°31' E 011°21'816.9
2018-Apr-18 01:00N 57°24' E 011°29'917.6
2018-Apr-18 00:30N 57°16' E 011°35'917.4
2018-Apr-18 00:00N 57°07' E 011°40'1417.2
2018-Apr-17 23:11N 56°54' E 011°49'416.5
2018-Apr-17 22:58N 56°51' E 011°51'2115.8
2018-Apr-17 21:39N 56°31' E 011°39'616.2
2018-Apr-17 21:18N 56°26' E 011°34'1016.2
2018-Apr-17 20:42N 56°18' E 011°25'616.7
2018-Apr-17 20:21N 56°13' E 011°19'916.4
2018-Apr-17 19:49N 56°06' E 011°09'4513.8
2018-Apr-17 16:33N 55°21' E 011°02'616.0
2018-Apr-17 16:12N 55°16' E 011°05'315.9
2018-Apr-17 16:00N 55°13' E 011°06'815.5
2018-Apr-17 15:30N 55°05' E 011°03'815.2
2018-Apr-17 15:00N 54°58' E 010°59'714.1
2018-Apr-17 14:30N 54°52' E 010°53'815.0
2018-Apr-17 14:00N 54°44' E 010°53'714.4
2018-Apr-17 13:30N 54°39' E 011°01'816.2
2018-Apr-17 13:00N 54°36' E 011°14'816.2
2018-Apr-17 12:30N 54°32' E 011°26'815.9
2018-Apr-17 12:00N 54°28' E 011°39'815.7
2018-Apr-17 11:30N 54°26' E 011°52'815.8
2018-Apr-17 11:00N 54°26' E 012°05'  

Dump ship's entire track history